createdAt,value
2019-03-10T00:00:32.027Z,1004.18
2019-03-10T00:01:31.986Z,1004.09
2019-03-10T00:02:31.973Z,1004.11
2019-03-10T00:03:31.978Z,1004.13
2019-03-10T00:04:31.974Z,1004.09
2019-03-10T00:05:31.964Z,1004.11
2019-03-10T00:06:31.953Z,1004.10
2019-03-10T00:07:31.921Z,1004.16
2019-03-10T00:08:31.904Z,1004.13
2019-03-10T00:09:31.898Z,1004.08
2019-03-10T00:10:32.394Z,1004.16
2019-03-10T00:11:31.877Z,1004.19
2019-03-10T00:12:31.867Z,1004.17
2019-03-10T00:13:31.856Z,1004.09
2019-03-10T00:14:31.841Z,1004.22
2019-03-10T00:15:31.899Z,1004.12
2019-03-10T00:16:31.827Z,1004.11
2019-03-10T00:17:31.831Z,1004.09
2019-03-10T00:18:31.834Z,1004.10
2019-03-10T00:19:31.786Z,1004.13
2019-03-10T00:20:31.788Z,1004.08
2019-03-10T00:21:31.786Z,1004.13
2019-03-10T00:22:31.758Z,1004.23
2019-03-10T00:23:31.745Z,1004.07
2019-03-10T00:24:31.726Z,1004.32
2019-03-10T00:25:31.713Z,1004.16
2019-03-10T00:26:31.788Z,1004.17
2019-03-10T00:27:31.698Z,1004.06
2019-03-10T00:28:31.685Z,1004.20
2019-03-10T00:29:31.708Z,1004.22
2019-03-10T00:30:31.701Z,1004.00
2019-03-10T00:31:31.742Z,1004.14
2019-03-10T00:32:31.645Z,1004.17
2019-03-10T00:33:31.666Z,1004.13
2019-03-10T00:34:31.645Z,1004.19
2019-03-10T00:35:31.703Z,1004.16
2019-03-10T00:36:32.418Z,1004.16
2019-03-10T00:37:31.604Z,1004.26
2019-03-10T00:38:31.627Z,1004.18
2019-03-10T00:39:31.708Z,1004.19
2019-03-10T00:40:31.641Z,1004.27
2019-03-10T00:41:31.562Z,1004.34
2019-03-10T00:42:31.931Z,1004.35
2019-03-10T00:43:32.460Z,1004.41
2019-03-10T00:44:31.537Z,1004.35
2019-03-10T00:45:31.531Z,1004.40
2019-03-10T00:46:31.495Z,1004.31
2019-03-10T00:47:31.494Z,1004.35
2019-03-10T00:48:31.472Z,1004.38
2019-03-10T00:49:31.448Z,1004.37
2019-03-10T00:50:31.465Z,1004.47
2019-03-10T00:51:31.443Z,1004.47
2019-03-10T00:52:31.449Z,1004.35
2019-03-10T00:53:31.412Z,1004.37
2019-03-10T00:54:31.410Z,1004.21
2019-03-10T00:55:31.381Z,1004.30
2019-03-10T00:56:31.377Z,1004.30
2019-03-10T00:57:31.387Z,1004.29
2019-03-10T00:58:31.346Z,1004.26
2019-03-10T00:59:31.340Z,1004.18
2019-03-10T01:00:31.322Z,1004.26
2019-03-10T01:01:31.322Z,1004.30
2019-03-10T01:02:31.330Z,1004.25
2019-03-10T01:03:31.301Z,1004.29
2019-03-10T01:04:31.277Z,1004.30
2019-03-10T01:05:31.267Z,1004.30
2019-03-10T01:06:31.269Z,1004.28
2019-03-10T01:07:31.277Z,1004.26
2019-03-10T01:08:31.262Z,1004.18
2019-03-10T01:09:31.240Z,1004.09
2019-03-10T01:10:31.217Z,1004.17
2019-03-10T01:11:31.206Z,1004.18
2019-03-10T01:12:31.221Z,1004.19
2019-03-10T01:13:31.200Z,1004.22
2019-03-10T01:14:31.168Z,1004.12
2019-03-10T01:15:31.156Z,1004.13
2019-03-10T01:16:31.153Z,1004.14
2019-03-10T01:17:31.133Z,1004.15
2019-03-10T01:18:31.155Z,1004.21
2019-03-10T01:19:31.148Z,1004.13
2019-03-10T01:20:31.106Z,1004.18
2019-03-10T01:21:31.117Z,1004.22
2019-03-10T01:22:31.087Z,1004.23
2019-03-10T01:23:31.085Z,1004.22
2019-03-10T01:24:31.066Z,1004.21
2019-03-10T01:25:31.046Z,1004.30
2019-03-10T01:26:31.048Z,1004.22
2019-03-10T01:27:31.026Z,1004.15
2019-03-10T01:28:31.096Z,1004.04
2019-03-10T01:29:31.008Z,1004.03
2019-03-10T01:30:31.006Z,1004.04
2019-03-10T01:31:30.987Z,1004.04
2019-03-10T01:32:30.968Z,1004.07
2019-03-10T01:33:31.430Z,1004.04
2019-03-10T01:34:30.941Z,1004.01
2019-03-10T01:35:30.942Z,1004.03
2019-03-10T01:36:30.946Z,1004.03
2019-03-10T01:37:30.910Z,1004.07
2019-03-10T01:38:30.925Z,1004.08
2019-03-10T01:39:30.886Z,1004.03
2019-03-10T01:40:30.914Z,1004.07
2019-03-10T01:41:31.389Z,1003.99
2019-03-10T01:42:30.858Z,1004.02
2019-03-10T01:43:30.838Z,1003.99
2019-03-10T01:44:30.870Z,1004.03
2019-03-10T01:45:30.829Z,1003.99
2019-03-10T01:46:30.829Z,1003.99
2019-03-10T01:47:30.810Z,1003.95
2019-03-10T01:48:30.786Z,1003.86
2019-03-10T01:49:30.804Z,1003.85
2019-03-10T01:50:30.769Z,1003.84
2019-03-10T01:51:30.755Z,1003.87
2019-03-10T01:52:30.748Z,1003.80
2019-03-10T01:53:30.733Z,1003.81
2019-03-10T01:54:30.769Z,1003.80
2019-03-10T01:55:30.700Z,1003.87
2019-03-10T01:56:30.694Z,1003.89
2019-03-10T01:57:30.683Z,1003.89
2019-03-10T01:58:30.682Z,1003.90
2019-03-10T01:59:30.694Z,1003.91
2019-03-10T02:00:30.649Z,1003.99
2019-03-10T02:01:30.655Z,1003.89
2019-03-10T02:02:30.635Z,1003.91
2019-03-10T02:03:30.633Z,1003.89
2019-03-10T02:04:30.630Z,1003.82
2019-03-10T02:05:30.630Z,1003.85
2019-03-10T02:06:30.581Z,1003.86
2019-03-10T02:07:30.579Z,1003.84
2019-03-10T02:08:30.556Z,1003.89
2019-03-10T02:09:30.561Z,1003.85
2019-03-10T02:10:30.571Z,1003.84
2019-03-10T02:11:30.533Z,1003.81
2019-03-10T02:12:30.520Z,1003.83
2019-03-10T02:13:30.509Z,1003.82
2019-03-10T02:14:30.498Z,1003.83
2019-03-10T02:15:30.503Z,1003.76
2019-03-10T02:16:30.471Z,1003.78
2019-03-10T02:17:30.456Z,1003.82
2019-03-10T02:18:30.445Z,1003.78
2019-03-10T02:19:30.436Z,1003.81
2019-03-10T02:20:30.447Z,1003.71
2019-03-10T02:21:30.437Z,1003.77
2019-03-10T02:22:30.407Z,1003.78
2019-03-10T02:23:30.385Z,1003.77
2019-03-10T02:24:30.381Z,1003.76
2019-03-10T02:25:30.398Z,1003.76
2019-03-10T02:26:30.367Z,1003.74
2019-03-10T02:27:30.347Z,1003.73
2019-03-10T02:28:30.343Z,1003.77
2019-03-10T02:29:30.322Z,1003.74
2019-03-10T02:30:30.403Z,1003.77
2019-03-10T02:31:30.304Z,1003.74
2019-03-10T02:32:30.306Z,1003.79
2019-03-10T02:33:30.303Z,1003.68
2019-03-10T02:34:30.274Z,1003.75
2019-03-10T02:35:30.281Z,1003.74
2019-03-10T02:36:30.257Z,1003.67
2019-03-10T02:37:30.237Z,1003.70
2019-03-10T02:38:30.241Z,1003.69
2019-03-10T02:39:30.216Z,1003.70
2019-03-10T02:40:30.221Z,1003.63
2019-03-10T02:41:30.254Z,1003.62
2019-03-10T02:42:30.189Z,1003.57
2019-03-10T02:43:30.208Z,1003.55
2019-03-10T02:44:30.167Z,1003.47
2019-03-10T02:45:30.177Z,1003.53
2019-03-10T02:46:30.132Z,1003.45
2019-03-10T02:47:30.130Z,1003.46
2019-03-10T02:48:30.115Z,1003.52
2019-03-10T02:49:30.108Z,1003.49
2019-03-10T02:50:30.120Z,1003.45
2019-03-10T02:51:30.075Z,1003.42
2019-03-10T02:52:30.066Z,1003.42
2019-03-10T02:53:30.114Z,1003.35
2019-03-10T02:54:30.046Z,1003.39
2019-03-10T02:55:30.060Z,1003.38
2019-03-10T02:56:30.028Z,1003.40
2019-03-10T02:57:30.009Z,1003.41
2019-03-10T02:58:30.008Z,1003.41
2019-03-10T02:59:30.010Z,1003.38
2019-03-10T03:00:29.998Z,1003.46
2019-03-10T03:01:29.978Z,1003.46
2019-03-10T03:02:29.957Z,1003.34
2019-03-10T03:03:29.945Z,1003.33
2019-03-10T03:04:29.953Z,1003.25
2019-03-10T03:05:29.944Z,1003.24
2019-03-10T03:06:29.927Z,1003.37
2019-03-10T03:07:29.916Z,1003.29
2019-03-10T03:08:29.900Z,1003.30
2019-03-10T03:09:29.885Z,1003.36
2019-03-10T03:10:29.882Z,1003.28
2019-03-10T03:11:29.858Z,1003.28
2019-03-10T03:12:29.847Z,1003.25
2019-03-10T03:13:29.842Z,1003.27
2019-03-10T03:14:29.820Z,1003.22
2019-03-10T03:15:29.922Z,1003.24
2019-03-10T03:16:29.816Z,1003.24
2019-03-10T03:17:29.792Z,1003.16
2019-03-10T03:18:29.772Z,1003.23
2019-03-10T03:19:29.772Z,1003.10
2019-03-10T03:20:29.788Z,1003.09
2019-03-10T03:21:42.428Z,1003.10
2019-03-10T03:22:30.738Z,1003.08
2019-03-10T03:23:29.737Z,1003.09
2019-03-10T03:24:29.722Z,1003.14
2019-03-10T03:25:29.713Z,1003.11
2019-03-10T03:26:29.716Z,1003.03
2019-03-10T03:27:29.679Z,1003.06
2019-03-10T03:28:29.665Z,1003.06
2019-03-10T03:29:29.669Z,1003.03
2019-03-10T03:30:29.641Z,1003.07
2019-03-10T03:31:29.655Z,1002.97
2019-03-10T03:32:29.628Z,1002.94
2019-03-10T03:33:29.679Z,1002.98
2019-03-10T03:34:29.619Z,1003.02
2019-03-10T03:35:29.595Z,1003.06
2019-03-10T03:36:29.640Z,1003.08
2019-03-10T03:37:29.562Z,1003.05
2019-03-10T03:38:29.553Z,1003.08
2019-03-10T03:39:29.538Z,1003.08
2019-03-10T03:40:29.541Z,1003.05
2019-03-10T03:41:29.551Z,1002.99
2019-03-10T03:42:29.522Z,1003.02
2019-03-10T03:43:29.495Z,1003.05
2019-03-10T03:44:29.496Z,1003.04
2019-03-10T03:45:29.478Z,1003.04
2019-03-10T03:46:29.483Z,1003.02
2019-03-10T03:47:29.455Z,1003.00
2019-03-10T03:48:29.437Z,1003.05
2019-03-10T03:49:29.438Z,1003.01
2019-03-10T03:50:29.426Z,1003.01
2019-03-10T03:51:29.439Z,1003.00
2019-03-10T03:52:29.407Z,1003.02
2019-03-10T03:53:29.389Z,1003.00
2019-03-10T03:54:29.380Z,1003.00
2019-03-10T03:55:29.357Z,1003.00
2019-03-10T03:56:29.381Z,1003.02
2019-03-10T03:57:29.359Z,1003.00
2019-03-10T03:58:29.359Z,1003.02
2019-03-10T03:59:29.334Z,1003.04
2019-03-10T04:00:29.308Z,1003.02
2019-03-10T04:01:29.312Z,1003.01
2019-03-10T04:02:29.282Z,1002.96
2019-03-10T04:03:29.282Z,1002.93
2019-03-10T04:04:29.300Z,1002.96
2019-03-10T04:05:29.257Z,1003.02
2019-03-10T04:06:29.257Z,1002.96
2019-03-10T04:07:29.225Z,1002.95
2019-03-10T04:08:29.218Z,1003.04
2019-03-10T04:09:29.218Z,1002.99
2019-03-10T04:10:29.211Z,1003.04
2019-03-10T04:11:29.227Z,1003.03
2019-03-10T04:12:29.171Z,1003.02
2019-03-10T04:13:29.163Z,1003.05
2019-03-10T04:14:29.160Z,1003.03
2019-03-10T04:15:29.161Z,1003.04
2019-03-10T04:16:29.190Z,1003.06
2019-03-10T04:17:29.114Z,1003.02
2019-03-10T04:18:29.118Z,1003.05
2019-03-10T04:19:29.091Z,1003.03
2019-03-10T04:20:29.083Z,1003.00
2019-03-10T04:21:29.099Z,1003.01
2019-03-10T04:22:29.054Z,1002.95
2019-03-10T04:23:29.044Z,1002.97
2019-03-10T04:24:29.038Z,1003.05
2019-03-10T04:25:29.027Z,1002.96
2019-03-10T04:26:29.046Z,1003.01
2019-03-10T04:27:29.007Z,1003.04
2019-03-10T04:28:28.995Z,1003.07
2019-03-10T04:29:28.983Z,1002.98
2019-03-10T04:30:28.971Z,1002.96
2019-03-10T04:31:29.067Z,1002.95
2019-03-10T04:32:28.959Z,1002.91
2019-03-10T04:33:28.935Z,1002.91
2019-03-10T04:34:28.922Z,1002.92
2019-03-10T04:35:28.923Z,1002.92
2019-03-10T04:36:28.931Z,1002.95
2019-03-10T04:37:28.967Z,1002.98
2019-03-10T04:38:28.875Z,1002.94
2019-03-10T04:39:28.886Z,1002.93
2019-03-10T04:40:28.855Z,1002.92
2019-03-10T04:41:28.860Z,1002.93
2019-03-10T04:42:28.835Z,1002.97
2019-03-10T04:43:28.829Z,1003.01
2019-03-10T04:44:28.817Z,1002.99
2019-03-10T04:45:28.797Z,1002.99
2019-03-10T04:46:28.811Z,1003.00
2019-03-10T04:47:28.779Z,1003.01
2019-03-10T04:48:28.783Z,1002.96
2019-03-10T04:49:28.757Z,1002.99
2019-03-10T04:50:28.749Z,1002.99
2019-03-10T04:51:28.753Z,1003.00
2019-03-10T04:52:28.721Z,1002.96
2019-03-10T04:53:28.716Z,1003.00
2019-03-10T04:54:28.705Z,1003.00
2019-03-10T04:55:28.694Z,1002.99
2019-03-10T04:56:28.691Z,1002.98
2019-03-10T04:57:28.664Z,1003.01
2019-03-10T04:58:28.650Z,1003.04
2019-03-10T04:59:28.653Z,1003.04
2019-03-10T05:00:28.634Z,1003.08
2019-03-10T05:01:28.650Z,1003.04
2019-03-10T05:02:28.620Z,1002.99
2019-03-10T05:03:28.609Z,1003.00
2019-03-10T05:04:28.598Z,1002.98
2019-03-10T05:05:28.596Z,1002.98
2019-03-10T05:06:28.588Z,1002.96
2019-03-10T05:07:28.564Z,1002.99
2019-03-10T05:08:28.537Z,1002.93
2019-03-10T05:09:28.535Z,1002.97
2019-03-10T05:10:28.522Z,1002.98
2019-03-10T05:11:28.533Z,1003.01
2019-03-10T05:12:28.501Z,1003.02
2019-03-10T05:13:28.508Z,1003.08
2019-03-10T05:14:28.477Z,1003.12
2019-03-10T05:15:28.474Z,1003.12
2019-03-10T05:16:28.474Z,1003.09
2019-03-10T05:17:28.448Z,1003.09
2019-03-10T05:18:28.437Z,1003.10
2019-03-10T05:19:28.422Z,1003.07
2019-03-10T05:20:28.411Z,1003.04
2019-03-10T05:21:28.421Z,1003.03
2019-03-10T05:22:28.401Z,1003.02
2019-03-10T05:23:28.396Z,1002.99
2019-03-10T05:24:28.515Z,1002.92
2019-03-10T05:25:28.353Z,1002.89
2019-03-10T05:26:28.343Z,1002.96
2019-03-10T05:27:28.361Z,1002.90
2019-03-10T05:28:28.328Z,1002.94
2019-03-10T05:29:28.327Z,1002.90
2019-03-10T05:30:28.312Z,1002.95
2019-03-10T05:31:28.289Z,1002.92
2019-03-10T05:32:28.298Z,1002.95
2019-03-10T05:33:28.271Z,1002.93
2019-03-10T05:34:28.267Z,1002.95
2019-03-10T05:35:28.248Z,1002.92
2019-03-10T05:36:28.230Z,1002.95
2019-03-10T05:37:28.251Z,1002.91
2019-03-10T05:38:28.223Z,1002.89
2019-03-10T05:39:28.199Z,1002.88
2019-03-10T05:40:28.194Z,1002.96
2019-03-10T05:41:28.184Z,1002.92
2019-03-10T05:42:28.194Z,1002.90
2019-03-10T05:43:28.150Z,1002.88
2019-03-10T05:44:28.138Z,1002.88
2019-03-10T05:45:28.137Z,1002.91
2019-03-10T05:46:28.119Z,1002.88
2019-03-10T05:47:28.143Z,1002.80
2019-03-10T05:48:28.096Z,1002.81
2019-03-10T05:49:28.093Z,1002.77
2019-03-10T05:50:28.077Z,1002.75
2019-03-10T05:51:28.065Z,1002.70
2019-03-10T05:52:28.070Z,1002.72
2019-03-10T05:53:28.058Z,1002.73
2019-03-10T05:54:28.035Z,1002.66
2019-03-10T05:55:28.024Z,1002.65
2019-03-10T05:56:28.017Z,1002.63
2019-03-10T05:57:28.034Z,1002.60
2019-03-10T05:58:27.986Z,1002.61
2019-03-10T05:59:27.975Z,1002.59
2019-03-10T06:00:27.987Z,1002.60
2019-03-10T06:01:27.949Z,1002.62
2019-03-10T06:02:27.971Z,1002.60
2019-03-10T06:03:27.947Z,1002.58
2019-03-10T06:04:27.928Z,1002.54
2019-03-10T06:05:27.903Z,1002.49
2019-03-10T06:06:27.913Z,1002.50
2019-03-10T06:07:27.879Z,1002.46
2019-03-10T06:08:27.896Z,1002.50
2019-03-10T06:09:27.859Z,1002.47
2019-03-10T06:10:27.851Z,1002.50
2019-03-10T06:11:27.840Z,1002.53
2019-03-10T06:12:27.832Z,1002.51
2019-03-10T06:13:27.840Z,1002.47
2019-03-10T06:14:27.807Z,1002.44
2019-03-10T06:15:27.799Z,1002.38
2019-03-10T06:16:27.781Z,1002.40
2019-03-10T06:17:27.775Z,1002.38
2019-03-10T06:18:27.787Z,1002.40
2019-03-10T06:19:27.755Z,1002.36
2019-03-10T06:20:27.753Z,1002.37
2019-03-10T06:21:27.745Z,1002.35
2019-03-10T06:22:27.717Z,1002.35
2019-03-10T06:23:27.725Z,1002.34
2019-03-10T06:24:27.693Z,1002.28
2019-03-10T06:25:27.695Z,1002.29
2019-03-10T06:26:27.687Z,1002.28
2019-03-10T06:27:27.661Z,1002.24
2019-03-10T06:28:27.666Z,1002.23
2019-03-10T06:29:27.644Z,1002.19
2019-03-10T06:30:27.627Z,1002.20
2019-03-10T06:31:27.628Z,1002.17
2019-03-10T06:32:27.610Z,1002.18
2019-03-10T06:33:27.628Z,1002.21
2019-03-10T06:34:27.591Z,1002.14
2019-03-10T06:35:27.583Z,1002.12
2019-03-10T06:36:27.565Z,1002.14
2019-03-10T06:37:27.553Z,1002.12
2019-03-10T06:38:27.563Z,1002.16
2019-03-10T06:39:27.523Z,1002.21
2019-03-10T06:40:32.133Z,1002.17
2019-03-10T06:41:28.521Z,1002.16
2019-03-10T06:42:27.502Z,1002.10
2019-03-10T06:43:27.527Z,1002.08
2019-03-10T06:44:27.467Z,1002.11
2019-03-10T06:45:27.463Z,1002.05
2019-03-10T06:46:27.448Z,1002.12
2019-03-10T06:47:27.438Z,1002.09
2019-03-10T06:48:27.453Z,1002.02
2019-03-10T06:49:27.414Z,1002.00
2019-03-10T06:50:27.406Z,1002.00
2019-03-10T06:51:27.403Z,1001.96
2019-03-10T06:52:27.395Z,1002.02
2019-03-10T06:53:27.405Z,1002.01
2019-03-10T06:54:27.389Z,1002.05
2019-03-10T06:55:27.350Z,1002.08
2019-03-10T06:56:27.335Z,1002.11
2019-03-10T06:57:27.330Z,1002.07
2019-03-10T06:58:27.316Z,1002.06
2019-03-10T06:59:27.325Z,1002.09
2019-03-10T07:00:27.316Z,1002.05
2019-03-10T07:01:27.290Z,1001.96
2019-03-10T07:02:27.272Z,1001.96
2019-03-10T07:03:27.270Z,1001.95
2019-03-10T07:04:27.288Z,1001.92
2019-03-10T07:05:27.239Z,1001.89
2019-03-10T07:06:27.227Z,1001.93
2019-03-10T07:07:27.211Z,1001.89
2019-03-10T07:08:27.205Z,1001.88
2019-03-10T07:09:27.213Z,1001.90
2019-03-10T07:10:27.194Z,1001.86
2019-03-10T07:11:27.173Z,1001.87
2019-03-10T07:12:27.169Z,1001.87
2019-03-10T07:13:27.174Z,1001.88
2019-03-10T07:14:27.157Z,1001.84
2019-03-10T07:15:27.136Z,1001.86
2019-03-10T07:16:27.126Z,1001.87
2019-03-10T07:17:27.111Z,1001.85
2019-03-10T07:18:27.106Z,1001.82
2019-03-10T07:19:27.106Z,1001.80
2019-03-10T07:20:27.074Z,1001.80
2019-03-10T07:21:27.095Z,1001.80
2019-03-10T07:22:27.054Z,1001.82
2019-03-10T07:23:27.110Z,1001.85
2019-03-10T07:24:27.092Z,1001.84
2019-03-10T07:25:27.051Z,1001.86
2019-03-10T07:26:27.004Z,1001.78
2019-03-10T07:27:26.993Z,1001.80
2019-03-10T07:28:26.983Z,1001.88
2019-03-10T07:29:27.011Z,1001.89
2019-03-10T07:30:26.956Z,1001.82
2019-03-10T07:31:27.032Z,1001.84
2019-03-10T07:32:26.941Z,1001.89
2019-03-10T07:33:26.937Z,1001.82
2019-03-10T07:34:27.089Z,1001.78
2019-03-10T07:35:26.905Z,1001.82
2019-03-10T07:36:26.892Z,1001.75
2019-03-10T07:37:26.931Z,1001.74
2019-03-10T07:38:26.867Z,1001.80
2019-03-10T07:39:26.885Z,1001.76
2019-03-10T07:40:26.876Z,1001.74
2019-03-10T07:41:26.835Z,1001.75
2019-03-10T07:42:26.825Z,1001.75
2019-03-10T07:43:26.823Z,1001.77
2019-03-10T07:44:26.808Z,1001.76
2019-03-10T07:45:26.811Z,1001.83
2019-03-10T07:46:26.851Z,1001.76
2019-03-10T07:47:26.839Z,1001.80
2019-03-10T07:48:26.761Z,1001.82
2019-03-10T07:49:26.752Z,1001.71
2019-03-10T07:50:26.762Z,1001.74
2019-03-10T07:51:26.747Z,1001.68
2019-03-10T07:52:26.717Z,1001.67
2019-03-10T07:53:26.698Z,1001.68
2019-03-10T07:54:26.689Z,1001.61
2019-03-10T07:55:26.697Z,1001.64
2019-03-10T07:56:26.695Z,1001.56
2019-03-10T07:57:26.670Z,1001.59
2019-03-10T07:58:26.653Z,1001.61
2019-03-10T07:59:26.633Z,1001.61
2019-03-10T08:00:26.640Z,1001.62
2019-03-10T08:01:26.615Z,1001.61
2019-03-10T08:02:26.609Z,1001.55
2019-03-10T08:03:26.977Z,1001.55
2019-03-10T08:04:26.598Z,1001.44
2019-03-10T08:05:26.586Z,1001.46
2019-03-10T08:06:26.567Z,1001.48
2019-03-10T08:07:26.562Z,1001.45
2019-03-10T08:08:26.537Z,1001.38
2019-03-10T08:09:26.525Z,1001.45
2019-03-10T08:10:26.531Z,1001.39
2019-03-10T08:11:26.497Z,1001.40
2019-03-10T08:12:26.493Z,1001.41
2019-03-10T08:13:26.489Z,1001.41
2019-03-10T08:14:26.474Z,1001.39
2019-03-10T08:15:26.466Z,1001.32
2019-03-10T08:16:26.449Z,1001.31
2019-03-10T08:17:26.438Z,1001.34
2019-03-10T08:18:26.443Z,1001.24
2019-03-10T08:19:26.414Z,1001.25
2019-03-10T08:20:26.421Z,1001.25
2019-03-10T08:21:26.403Z,1001.29
2019-03-10T08:22:26.390Z,1001.23
2019-03-10T08:23:26.389Z,1001.13
2019-03-10T08:24:26.368Z,1001.13
2019-03-10T08:25:26.350Z,1001.03
2019-03-10T08:26:26.379Z,1001.08
2019-03-10T08:27:26.322Z,1001.11
2019-03-10T08:28:26.307Z,1001.06
2019-03-10T08:29:26.317Z,1001.10
2019-03-10T08:30:26.300Z,1001.08
2019-03-10T08:31:26.304Z,1001.01
2019-03-10T08:32:26.263Z,1001.02
2019-03-10T08:33:26.255Z,1001.00
2019-03-10T08:34:26.248Z,1000.96
2019-03-10T08:35:26.246Z,1000.91
2019-03-10T08:36:26.241Z,1000.84
2019-03-10T08:37:26.205Z,1000.79
2019-03-10T08:38:26.301Z,1000.81
2019-03-10T08:39:26.199Z,1000.79
2019-03-10T08:40:26.186Z,1000.79
2019-03-10T08:41:26.273Z,1000.77
2019-03-10T08:42:26.154Z,1000.78
2019-03-10T08:43:26.145Z,1000.75
2019-03-10T08:44:26.129Z,1000.73
2019-03-10T08:45:26.122Z,1000.69
2019-03-10T08:46:26.142Z,1000.64
2019-03-10T08:47:26.091Z,1000.66
2019-03-10T08:48:26.081Z,1000.64
2019-03-10T08:49:26.089Z,1000.65
2019-03-10T08:50:26.070Z,1000.62
2019-03-10T08:51:26.066Z,1000.56
2019-03-10T08:52:26.039Z,1000.60
2019-03-10T08:53:26.033Z,1000.59
2019-03-10T08:54:26.021Z,1000.56
2019-03-10T08:55:26.003Z,1000.60
2019-03-10T08:56:26.008Z,1000.57
2019-03-10T08:57:25.993Z,1000.59
2019-03-10T08:58:25.990Z,1000.59
2019-03-10T08:59:25.971Z,1000.57
2019-03-10T09:00:25.961Z,1000.60
2019-03-10T09:01:25.998Z,1000.49
2019-03-10T09:02:25.921Z,1000.48
2019-03-10T09:03:25.918Z,1000.48
2019-03-10T09:04:25.913Z,1000.47
2019-03-10T09:05:25.899Z,1000.50
2019-03-10T09:06:25.915Z,1000.50
2019-03-10T09:07:25.931Z,1000.47
2019-03-10T09:08:25.882Z,1000.52
2019-03-10T09:09:25.852Z,1000.50
2019-03-10T09:10:25.838Z,1000.45
2019-03-10T09:11:25.854Z,1000.43
2019-03-10T09:12:25.819Z,1000.46
2019-03-10T09:13:25.826Z,1000.45
2019-03-10T09:14:25.786Z,1000.38
2019-03-10T09:15:25.790Z,1000.41
2019-03-10T09:16:25.778Z,1000.35
2019-03-10T09:17:25.789Z,1000.28
2019-03-10T09:18:25.743Z,1000.32
2019-03-10T09:19:25.750Z,1000.34
2019-03-10T09:20:25.726Z,1000.33
2019-03-10T09:21:25.725Z,1000.30
2019-03-10T09:22:25.768Z,1000.30
2019-03-10T09:23:25.720Z,1000.31
2019-03-10T09:24:25.694Z,1000.31
2019-03-10T09:25:25.679Z,1000.14
2019-03-10T09:26:25.665Z,1000.12
2019-03-10T09:27:28.279Z,1000.11
2019-03-10T09:28:25.655Z,1000.08
2019-03-10T09:29:25.646Z,999.96
2019-03-10T09:30:25.614Z,1000.02
2019-03-10T09:31:25.598Z,999.98
2019-03-10T09:32:25.609Z,999.90
2019-03-10T09:33:25.582Z,999.97
2019-03-10T09:34:25.575Z,999.93
2019-03-10T09:35:25.554Z,999.98
2019-03-10T09:36:25.555Z,999.82
2019-03-10T09:37:25.565Z,999.85
2019-03-10T09:38:25.535Z,999.84
2019-03-10T09:39:25.516Z,999.81
2019-03-10T09:40:25.494Z,999.81
2019-03-10T09:41:25.495Z,999.79
2019-03-10T09:42:25.510Z,999.80
2019-03-10T09:43:25.474Z,999.79
2019-03-10T09:44:25.477Z,999.72
2019-03-10T09:45:25.437Z,999.72
2019-03-10T09:46:25.426Z,999.69
2019-03-10T09:47:25.440Z,999.69
2019-03-10T09:48:25.406Z,999.68
2019-03-10T09:49:25.400Z,999.63
2019-03-10T09:50:25.390Z,999.63
2019-03-10T09:51:25.379Z,999.69
2019-03-10T09:52:25.402Z,999.64
2019-03-10T09:53:25.351Z,999.60
2019-03-10T09:54:25.349Z,999.53
2019-03-10T09:55:25.345Z,999.55
2019-03-10T09:56:25.314Z,999.53
2019-03-10T09:57:25.337Z,999.54
2019-03-10T09:58:25.298Z,999.53
2019-03-10T09:59:25.293Z,999.52
2019-03-10T10:00:25.387Z,999.53
2019-03-10T10:01:25.264Z,999.51
2019-03-10T10:02:25.273Z,999.52
2019-03-10T10:03:25.241Z,999.53
2019-03-10T10:04:25.221Z,999.52
2019-03-10T10:05:25.233Z,999.43
2019-03-10T10:06:25.225Z,999.42
2019-03-10T10:07:25.197Z,999.40
2019-03-10T10:08:25.222Z,999.35
2019-03-10T10:09:25.170Z,999.41
2019-03-10T10:10:25.188Z,999.35
2019-03-10T10:11:25.155Z,999.34
2019-03-10T10:12:25.142Z,999.25
2019-03-10T10:13:25.152Z,999.18
2019-03-10T10:14:25.112Z,999.21
2019-03-10T10:15:25.107Z,999.09
2019-03-10T10:16:25.087Z,999.07
2019-03-10T10:17:25.096Z,999.04
2019-03-10T10:18:25.095Z,999.13
2019-03-10T10:19:25.066Z,999.12
2019-03-10T10:20:26.831Z,999.14
2019-03-10T10:21:25.033Z,999.19
2019-03-10T10:22:25.022Z,999.16
2019-03-10T10:23:25.050Z,999.17
2019-03-10T10:24:25.014Z,999.14
2019-03-10T10:25:25.001Z,999.12
2019-03-10T10:26:24.986Z,999.06
2019-03-10T10:27:24.968Z,999.04
2019-03-10T10:28:25.001Z,999.01
2019-03-10T10:29:24.945Z,999.02
2019-03-10T10:30:24.973Z,998.96
2019-03-10T10:31:24.941Z,998.96
2019-03-10T10:32:24.931Z,998.95
2019-03-10T10:33:24.931Z,998.89
2019-03-10T10:34:24.928Z,998.84
2019-03-10T10:35:24.898Z,998.93
2019-03-10T10:36:24.875Z,998.84
2019-03-10T10:37:24.880Z,998.78
2019-03-10T10:38:24.870Z,998.73
2019-03-10T10:39:24.845Z,998.69
2019-03-10T10:40:24.825Z,998.69
2019-03-10T10:41:24.815Z,998.73
2019-03-10T10:42:24.832Z,998.65
2019-03-10T10:43:24.918Z,998.66
2019-03-10T10:44:24.787Z,998.63
2019-03-10T10:45:24.776Z,998.57
2019-03-10T10:46:24.773Z,998.57
2019-03-10T10:47:24.761Z,998.57
2019-03-10T10:48:24.779Z,998.55
2019-03-10T10:49:24.730Z,998.56
2019-03-10T10:50:24.718Z,998.52
2019-03-10T10:51:24.717Z,998.51
2019-03-10T10:52:24.723Z,998.56
2019-03-10T10:53:24.704Z,998.54
2019-03-10T10:54:24.683Z,998.51
2019-03-10T10:55:24.652Z,998.48
2019-03-10T10:56:24.652Z,998.50
2019-03-10T10:57:24.640Z,998.46
2019-03-10T10:58:24.659Z,998.43
2019-03-10T10:59:24.606Z,998.43
2019-03-10T11:00:24.608Z,998.47
2019-03-10T11:01:24.590Z,998.42
2019-03-10T11:02:24.578Z,998.43
2019-03-10T11:03:24.612Z,998.37
2019-03-10T11:04:24.576Z,998.38
2019-03-10T11:05:24.539Z,998.43
2019-03-10T11:06:24.539Z,998.39
2019-03-10T11:07:24.512Z,998.40
2019-03-10T11:08:24.533Z,998.42
2019-03-10T11:09:24.502Z,998.34
2019-03-10T11:10:24.493Z,998.35
2019-03-10T11:11:24.466Z,998.38
2019-03-10T11:12:24.459Z,998.36
2019-03-10T11:13:24.475Z,998.33
2019-03-10T11:14:24.466Z,998.28
2019-03-10T11:15:24.418Z,998.23
2019-03-10T11:16:24.411Z,998.12
2019-03-10T11:17:24.404Z,998.06
2019-03-10T11:18:24.425Z,998.05
2019-03-10T11:19:24.390Z,998.06
2019-03-10T11:20:24.399Z,998.00
2019-03-10T11:21:24.358Z,998.00
2019-03-10T11:22:24.643Z,998.02
2019-03-10T11:23:24.376Z,997.94
2019-03-10T11:24:24.329Z,997.92
2019-03-10T11:25:24.323Z,997.92
2019-03-10T11:26:24.303Z,997.88
2019-03-10T11:27:24.286Z,997.91
2019-03-10T11:28:24.344Z,997.79
2019-03-10T11:29:24.264Z,997.80
2019-03-10T11:30:24.263Z,997.78
2019-03-10T11:31:24.248Z,997.75
2019-03-10T11:32:24.254Z,997.77
2019-03-10T11:33:24.263Z,997.74
2019-03-10T11:34:24.215Z,997.68
2019-03-10T11:35:24.265Z,997.71
2019-03-10T11:36:24.209Z,997.76
2019-03-10T11:37:24.179Z,997.75
2019-03-10T11:38:24.192Z,997.75
2019-03-10T11:39:24.152Z,997.71
2019-03-10T11:40:24.147Z,997.65
2019-03-10T11:41:33.215Z,997.64
2019-03-10T11:42:25.119Z,997.68
2019-03-10T11:43:24.151Z,997.67
2019-03-10T11:44:24.105Z,997.71
2019-03-10T11:45:24.088Z,997.69
2019-03-10T11:46:24.073Z,997.67
2019-03-10T11:47:24.066Z,997.63
2019-03-10T11:48:24.062Z,997.64
2019-03-10T11:49:24.061Z,997.59
2019-03-10T11:50:24.026Z,997.56
2019-03-10T11:51:24.028Z,997.59
2019-03-10T11:52:24.012Z,997.59
2019-03-10T11:53:25.747Z,997.62
2019-03-10T11:54:24.015Z,997.60
2019-03-10T11:55:24.042Z,997.54
2019-03-10T11:56:23.959Z,997.48
2019-03-10T11:57:23.951Z,997.53
2019-03-10T11:58:23.945Z,997.53
2019-03-10T11:59:23.988Z,997.44
2019-03-10T12:00:23.953Z,997.43
2019-03-10T12:01:23.918Z,997.41
2019-03-10T12:02:23.904Z,997.38
2019-03-10T12:03:23.886Z,997.27
2019-03-10T12:04:23.881Z,997.27
2019-03-10T12:05:23.890Z,997.22
2019-03-10T12:06:23.846Z,997.21
2019-03-10T12:07:23.830Z,997.18
2019-03-10T12:08:23.839Z,997.20
2019-03-10T12:09:23.844Z,997.10
2019-03-10T12:10:23.835Z,997.12